Schedule Details

Flight Number: CPX427
Departure: El Paso International Airport (KELP) at N/A
Arrival: Tulsa International Airport (KTUL) at N/A
Route: TDOWN3 TDOWN SFL HOMET SPS IRW


Current Weather Information
KELP 151951Z 28023G32KT 10SM FEW055 SCT065 BKN250 22/04 A2994 RMK AO2 PK WND 28032/1946 SLP082 T02220039
KTUL 151953Z 01014G22KT 3SM -FZDZ BR OVC012 M01/M03 A2986 RMK AO2 FZDZB33 SLP116 P0000 I1000 T10111033

Route Map